sensor_id;sensor_type;location;lat;lon;timestamp;temperature;humidity
67598;DHT22;62026;39.230;9.122;2022-10-15T00:01:08;21.70;70.00
67598;DHT22;62026;39.230;9.122;2022-10-15T00:03:40;21.70;70.10
67598;DHT22;62026;39.230;9.122;2022-10-15T00:06:09;21.70;70.20
67598;DHT22;62026;39.230;9.122;2022-10-15T00:08:37;21.70;70.20
67598;DHT22;62026;39.230;9.122;2022-10-15T00:11:22;21.70;70.20
67598;DHT22;62026;39.230;9.122;2022-10-15T00:13:54;21.70;70.20
67598;DHT22;62026;39.230;9.122;2022-10-15T00:16:22;21.70;70.20
67598;DHT22;62026;39.230;9.122;2022-10-15T00:18:49;21.70;70.40
67598;DHT22;62026;39.230;9.122;2022-10-15T00:21:17;21.70;70.40
67598;DHT22;62026;39.230;9.122;2022-10-15T00:23:45;21.70;70.30
67598;DHT22;62026;39.230;9.122;2022-10-15T00:26:13;21.70;70.20
67598;DHT22;62026;39.230;9.122;2022-10-15T00:28:41;21.70;70.30
67598;DHT22;62026;39.230;9.122;2022-10-15T00:31:08;21.70;70.30
67598;DHT22;62026;39.230;9.122;2022-10-15T00:33:37;21.60;70.40
67598;DHT22;62026;39.230;9.122;2022-10-15T00:38:31;21.60;70.40
67598;DHT22;62026;39.230;9.122;2022-10-15T00:40:58;21.60;70.30
67598;DHT22;62026;39.230;9.122;2022-10-15T00:43:44;21.70;70.30
67598;DHT22;62026;39.230;9.122;2022-10-15T00:46:16;21.60;70.20
67598;DHT22;62026;39.230;9.122;2022-10-15T00:48:45;21.60;70.30
67598;DHT22;62026;39.230;9.122;2022-10-15T00:51:15;21.60;70.10
67598;DHT22;62026;39.230;9.122;2022-10-15T00:53:44;21.60;70.00
67598;DHT22;62026;39.230;9.122;2022-10-15T00:56:11;21.60;70.10
67598;DHT22;62026;39.230;9.122;2022-10-15T00:58:39;21.60;70.00
67598;DHT22;62026;39.230;9.122;2022-10-15T01:01:06;21.60;70.10
67598;DHT22;62026;39.230;9.122;2022-10-15T01:03:32;21.60;70.10
67598;DHT22;62026;39.230;9.122;2022-10-15T01:06:00;21.60;70.00
67598;DHT22;62026;39.230;9.122;2022-10-15T01:08:27;21.60;69.90
67598;DHT22;62026;39.230;9.122;2022-10-15T01:13:56;21.50;69.90
67598;DHT22;62026;39.230;9.122;2022-10-15T01:16:31;21.50;69.90
67598;DHT22;62026;39.230;9.122;2022-10-15T01:22:15;21.50;70.00
67598;DHT22;62026;39.230;9.122;2022-10-15T01:24:58;21.50;70.20
67598;DHT22;62026;39.230;9.122;2022-10-15T01:27:33;21.50;70.30
67598;DHT22;62026;39.230;9.122;2022-10-15T01:30:17;21.50;70.40
67598;DHT22;62026;39.230;9.122;2022-10-15T01:43:45;21.50;70.40
67598;DHT22;62026;39.230;9.122;2022-10-15T01:46:52;21.50;70.40
67598;DHT22;62026;39.230;9.122;2022-10-15T01:49:24;21.50;70.50
67598;DHT22;62026;39.230;9.122;2022-10-15T01:51:55;21.50;70.40
67598;DHT22;62026;39.230;9.122;2022-10-15T01:54:25;21.50;70.40
67598;DHT22;62026;39.230;9.122;2022-10-15T01:56:52;21.50;70.40
67598;DHT22;62026;39.230;9.122;2022-10-15T01:59:25;21.50;70.40
67598;DHT22;62026;39.230;9.122;2022-10-15T02:01:54;21.50;70.50
67598;DHT22;62026;39.230;9.122;2022-10-15T02:04:24;21.50;70.50
67598;DHT22;62026;39.230;9.122;2022-10-15T02:09:56;21.50;70.40
67598;DHT22;62026;39.230;9.122;2022-10-15T02:12:37;21.50;70.40
67598;DHT22;62026;39.230;9.122;2022-10-15T02:15:16;21.50;70.40
67598;DHT22;62026;39.230;9.122;2022-10-15T02:20:49;21.50;70.40
67598;DHT22;62026;39.230;9.122;2022-10-15T02:23:14;21.50;70.30
67598;DHT22;62026;39.230;9.122;2022-10-15T02:25:56;21.50;70.40
67598;DHT22;62026;39.230;9.122;2022-10-15T02:28:23;21.50;70.40
67598;DHT22;62026;39.230;9.122;2022-10-15T02:30:52;21.50;70.40
67598;DHT22;62026;39.230;9.122;2022-10-15T02:33:22;21.50;70.30
67598;DHT22;62026;39.230;9.122;2022-10-15T02:35:49;21.40;70.30
67598;DHT22;62026;39.230;9.122;2022-10-15T02:38:17;21.40;70.30
67598;DHT22;62026;39.230;9.122;2022-10-15T02:40:45;21.40;70.30
67598;DHT22;62026;39.230;9.122;2022-10-15T02:43:14;21.40;70.10
67598;DHT22;62026;39.230;9.122;2022-10-15T02:45:43;21.40;70.10
67598;DHT22;62026;39.230;9.122;2022-10-15T02:48:09;21.40;69.90
67598;DHT22;62026;39.230;9.122;2022-10-15T02:50:35;21.40;69.70
67598;DHT22;62026;39.230;9.122;2022-10-15T02:53:01;21.40;69.60
67598;DHT22;62026;39.230;9.122;2022-10-15T02:55:27;21.40;69.70
67598;DHT22;62026;39.230;9.122;2022-10-15T02:57:53;21.40;69.70
67598;DHT22;62026;39.230;9.122;2022-10-15T03:00:20;21.40;69.70
67598;DHT22;62026;39.230;9.122;2022-10-15T03:02:47;21.30;69.80
67598;DHT22;62026;39.230;9.122;2022-10-15T03:05:16;21.40;69.70
67598;DHT22;62026;39.230;9.122;2022-10-15T03:07:41;21.30;69.70
67598;DHT22;62026;39.230;9.122;2022-10-15T03:10:08;21.30;69.80
67598;DHT22;62026;39.230;9.122;2022-10-15T03:12:34;21.30;69.80
67598;DHT22;62026;39.230;9.122;2022-10-15T03:15:00;21.30;69.80
67598;DHT22;62026;39.230;9.122;2022-10-15T03:17:27;21.30;69.90
67598;DHT22;62026;39.230;9.122;2022-10-15T03:19:52;21.30;69.90
67598;DHT22;62026;39.230;9.122;2022-10-15T03:22:20;21.20;70.10
67598;DHT22;62026;39.230;9.122;2022-10-15T03:24:50;21.30;70.00
67598;DHT22;62026;39.230;9.122;2022-10-15T03:27:22;21.20;70.00
67598;DHT22;62026;39.230;9.122;2022-10-15T03:29:48;21.20;70.00
67598;DHT22;62026;39.230;9.122;2022-10-15T03:32:13;21.20;70.10
67598;DHT22;62026;39.230;9.122;2022-10-15T03:34:40;21.20;70.10
67598;DHT22;62026;39.230;9.122;2022-10-15T03:37:08;21.20;70.00
67598;DHT22;62026;39.230;9.122;2022-10-15T03:39:35;21.10;70.10
67598;DHT22;62026;39.230;9.122;2022-10-15T03:42:04;21.10;70.20
67598;DHT22;62026;39.230;9.122;2022-10-15T03:44:36;21.10;70.30
67598;DHT22;62026;39.230;9.122;2022-10-15T03:47:09;21.10;70.30
67598;DHT22;62026;39.230;9.122;2022-10-15T03:49:48;21.10;70.50
67598;DHT22;62026;39.230;9.122;2022-10-15T03:52:14;21.10;70.60
67598;DHT22;62026;39.230;9.122;2022-10-15T03:54:41;21.10;70.70
67598;DHT22;62026;39.230;9.122;2022-10-15T03:57:08;21.10;70.60
67598;DHT22;62026;39.230;9.122;2022-10-15T03:59:38;21.00;70.60
67598;DHT22;62026;39.230;9.122;2022-10-15T04:02:05;21.00;70.60
67598;DHT22;62026;39.230;9.122;2022-10-15T04:04:31;21.00;70.50
67598;DHT22;62026;39.230;9.122;2022-10-15T04:06:58;21.00;70.60
67598;DHT22;62026;39.230;9.122;2022-10-15T04:09:24;21.00;70.60
67598;DHT22;62026;39.230;9.122;2022-10-15T04:11:50;21.00;70.70
67598;DHT22;62026;39.230;9.122;2022-10-15T04:14:16;21.00;70.50
67598;DHT22;62026;39.230;9.122;2022-10-15T04:16:44;21.00;70.50
67598;DHT22;62026;39.230;9.122;2022-10-15T04:19:16;21.00;70.60
67598;DHT22;62026;39.230;9.122;2022-10-15T04:21:48;21.00;70.60
67598;DHT22;62026;39.230;9.122;2022-10-15T04:24:26;20.90;70.60
67598;DHT22;62026;39.230;9.122;2022-10-15T04:26:52;20.90;70.60
67598;DHT22;62026;39.230;9.122;2022-10-15T04:29:18;20.90;70.70
67598;DHT22;62026;39.230;9.122;2022-10-15T04:31:44;20.90;70.60
67598;DHT22;62026;39.230;9.122;2022-10-15T04:34:10;20.90;70.50
67598;DHT22;62026;39.230;9.122;2022-10-15T04:36:36;20.90;70.50
67598;DHT22;62026;39.230;9.122;2022-10-15T04:39:08;20.90;70.50
67598;DHT22;62026;39.230;9.122;2022-10-15T04:41:37;20.90;70.50
67598;DHT22;62026;39.230;9.122;2022-10-15T04:44:07;20.80;70.50
67598;DHT22;62026;39.230;9.122;2022-10-15T04:46:33;20.80;70.60
67598;DHT22;62026;39.230;9.122;2022-10-15T04:49:18;20.80;70.50
67598;DHT22;62026;39.230;9.122;2022-10-15T04:51:44;20.80;70.50
67598;DHT22;62026;39.230;9.122;2022-10-15T04:54:18;20.80;70.60
67598;DHT22;62026;39.230;9.122;2022-10-15T04:56:58;20.80;70.50
67598;DHT22;62026;39.230;9.122;2022-10-15T04:59:24;20.80;70.50
67598;DHT22;62026;39.230;9.122;2022-10-15T05:02:09;20.80;70.60
67598;DHT22;62026;39.230;9.122;2022-10-15T05:04:36;20.80;70.70
67598;DHT22;62026;39.230;9.122;2022-10-15T05:07:02;20.80;70.80
67598;DHT22;62026;39.230;9.122;2022-10-15T05:09:29;20.80;70.80
67598;DHT22;62026;39.230;9.122;2022-10-15T05:11:56;20.80;70.90
67598;DHT22;62026;39.230;9.122;2022-10-15T05:14:25;20.80;71.00
67598;DHT22;62026;39.230;9.122;2022-10-15T05:17:03;20.80;71.00
67598;DHT22;62026;39.230;9.122;2022-10-15T05:19:34;20.80;71.00
67598;DHT22;62026;39.230;9.122;2022-10-15T05:22:01;20.80;71.00
67598;DHT22;62026;39.230;9.122;2022-10-15T05:24:29;20.70;71.10
67598;DHT22;62026;39.230;9.122;2022-10-15T05:27:00;20.70;71.20
67598;DHT22;62026;39.230;9.122;2022-10-15T05:29:29;20.70;71.40
67598;DHT22;62026;39.230;9.122;2022-10-15T05:31:55;20.70;71.30
67598;DHT22;62026;39.230;9.122;2022-10-15T05:34:25;20.70;71.40
67598;DHT22;62026;39.230;9.122;2022-10-15T05:37:07;20.80;71.40
67598;DHT22;62026;39.230;9.122;2022-10-15T05:39:33;20.70;71.50
67598;DHT22;62026;39.230;9.122;2022-10-15T05:41:59;20.80;71.50
67598;DHT22;62026;39.230;9.122;2022-10-15T05:44:36;20.80;71.70
67598;DHT22;62026;39.230;9.122;2022-10-15T05:47:01;20.80;71.80
67598;DHT22;62026;39.230;9.122;2022-10-15T05:49:27;20.80;71.90
67598;DHT22;62026;39.230;9.122;2022-10-15T05:52:03;20.80;71.90
67598;DHT22;62026;39.230;9.122;2022-10-15T05:54:54;20.80;72.00
67598;DHT22;62026;39.230;9.122;2022-10-15T05:57:20;20.80;72.00
67598;DHT22;62026;39.230;9.122;2022-10-15T05:59:46;20.90;72.00
67598;DHT22;62026;39.230;9.122;2022-10-15T06:02:12;20.90;71.90
67598;DHT22;62026;39.230;9.122;2022-10-15T06:04:40;21.00;71.90
67598;DHT22;62026;39.230;9.122;2022-10-15T06:07:07;21.00;71.90
67598;DHT22;62026;39.230;9.122;2022-10-15T06:09:33;21.00;71.90
67598;DHT22;62026;39.230;9.122;2022-10-15T06:11:59;21.10;71.70
67598;DHT22;62026;39.230;9.122;2022-10-15T06:14:25;21.20;71.60
67598;DHT22;62026;39.230;9.122;2022-10-15T06:16:51;21.30;71.10
67598;DHT22;62026;39.230;9.122;2022-10-15T06:19:19;21.40;70.50
67598;DHT22;62026;39.230;9.122;2022-10-15T06:21:45;21.60;70.20
67598;DHT22;62026;39.230;9.122;2022-10-15T06:24:11;21.70;69.80
67598;DHT22;62026;39.230;9.122;2022-10-15T06:26:37;21.80;69.70
67598;DHT22;62026;39.230;9.122;2022-10-15T06:29:03;21.90;69.30
67598;DHT22;62026;39.230;9.122;2022-10-15T06:31:30;21.90;69.30
67598;DHT22;62026;39.230;9.122;2022-10-15T06:33:56;22.00;69.20
67598;DHT22;62026;39.230;9.122;2022-10-15T06:36:22;22.10;69.20
67598;DHT22;62026;39.230;9.122;2022-10-15T06:38:50;22.20;69.00
67598;DHT22;62026;39.230;9.122;2022-10-15T06:41:16;22.30;68.80
67598;DHT22;62026;39.230;9.122;2022-10-15T06:43:42;22.50;68.70
67598;DHT22;62026;39.230;9.122;2022-10-15T06:46:10;22.60;68.60
67598;DHT22;62026;39.230;9.122;2022-10-15T06:48:36;22.60;68.50
67598;DHT22;62026;39.230;9.122;2022-10-15T06:51:02;22.60;68.30
67598;DHT22;62026;39.230;9.122;2022-10-15T06:53:29;22.70;68.40
67598;DHT22;62026;39.230;9.122;2022-10-15T06:55:56;22.80;68.30
67598;DHT22;62026;39.230;9.122;2022-10-15T06:58:23;22.90;68.30
67598;DHT22;62026;39.230;9.122;2022-10-15T07:00:49;23.00;68.00
67598;DHT22;62026;39.230;9.122;2022-10-15T07:03:15;23.10;67.60
67598;DHT22;62026;39.230;9.122;2022-10-15T07:05:41;23.20;67.60
67598;DHT22;62026;39.230;9.122;2022-10-15T07:08:06;23.30;67.40
67598;DHT22;62026;39.230;9.122;2022-10-15T07:10:32;23.30;67.30
67598;DHT22;62026;39.230;9.122;2022-10-15T07:12:58;23.40;67.00
67598;DHT22;62026;39.230;9.122;2022-10-15T07:15:25;23.50;66.70
67598;DHT22;62026;39.230;9.122;2022-10-15T07:17:52;23.60;66.60
67598;DHT22;62026;39.230;9.122;2022-10-15T07:20:26;23.60;66.60
67598;DHT22;62026;39.230;9.122;2022-10-15T07:22:58;23.70;66.40
67598;DHT22;62026;39.230;9.122;2022-10-15T07:25:28;23.80;66.30
67598;DHT22;62026;39.230;9.122;2022-10-15T07:27:54;23.80;66.00
67598;DHT22;62026;39.230;9.122;2022-10-15T07:30:22;23.80;65.90
67598;DHT22;62026;39.230;9.122;2022-10-15T07:32:51;23.80;66.00
67598;DHT22;62026;39.230;9.122;2022-10-15T07:35:18;23.90;65.90
67598;DHT22;62026;39.230;9.122;2022-10-15T07:37:44;24.00;65.60
67598;DHT22;62026;39.230;9.122;2022-10-15T07:40:12;24.20;65.40
67598;DHT22;62026;39.230;9.122;2022-10-15T07:42:38;24.30;65.00
67598;DHT22;62026;39.230;9.122;2022-10-15T07:45:05;24.30;65.10
67598;DHT22;62026;39.230;9.122;2022-10-15T07:47:31;24.40;65.00
67598;DHT22;62026;39.230;9.122;2022-10-15T07:49:57;24.50;64.80
67598;DHT22;62026;39.230;9.122;2022-10-15T07:52:23;24.70;64.50
67598;DHT22;62026;39.230;9.122;2022-10-15T07:54:49;24.80;64.20
67598;DHT22;62026;39.230;9.122;2022-10-15T07:57:18;24.90;63.90
67598;DHT22;62026;39.230;9.122;2022-10-15T07:59:45;25.00;63.60
67598;DHT22;62026;39.230;9.122;2022-10-15T08:02:13;24.90;63.90
67598;DHT22;62026;39.230;9.122;2022-10-15T08:04:41;25.00;63.80
67598;DHT22;62026;39.230;9.122;2022-10-15T08:07:07;24.90;63.90
67598;DHT22;62026;39.230;9.122;2022-10-15T08:09:32;24.90;63.80
67598;DHT22;62026;39.230;9.122;2022-10-15T08:11:58;25.10;63.50
67598;DHT22;62026;39.230;9.122;2022-10-15T08:14:24;25.20;63.10
67598;DHT22;62026;39.230;9.122;2022-10-15T08:16:50;25.30;62.70
67598;DHT22;62026;39.230;9.122;2022-10-15T08:19:16;25.30;62.90
67598;DHT22;62026;39.230;9.122;2022-10-15T08:21:43;25.20;62.80
67598;DHT22;62026;39.230;9.122;2022-10-15T08:24:09;25.30;62.80
67598;DHT22;62026;39.230;9.122;2022-10-15T08:26:35;25.50;62.30
67598;DHT22;62026;39.230;9.122;2022-10-15T08:29:01;25.70;61.70
67598;DHT22;62026;39.230;9.122;2022-10-15T08:31:27;25.70;61.50
67598;DHT22;62026;39.230;9.122;2022-10-15T08:33:52;25.70;61.40
67598;DHT22;62026;39.230;9.122;2022-10-15T08:36:18;25.70;61.40
67598;DHT22;62026;39.230;9.122;2022-10-15T08:38:44;25.90;61.20
67598;DHT22;62026;39.230;9.122;2022-10-15T08:41:15;25.80;61.30
67598;DHT22;62026;39.230;9.122;2022-10-15T08:43:52;25.90;60.90
67598;DHT22;62026;39.230;9.122;2022-10-15T08:46:27;25.80;60.80
67598;DHT22;62026;39.230;9.122;2022-10-15T08:48:59;25.90;60.80
67598;DHT22;62026;39.230;9.122;2022-10-15T08:51:40;26.10;60.30
67598;DHT22;62026;39.230;9.122;2022-10-15T08:54:15;26.20;59.70
67598;DHT22;62026;39.230;9.122;2022-10-15T08:56:44;26.20;60.00
67598;DHT22;62026;39.230;9.122;2022-10-15T09:02:34;26.30;59.60
67598;DHT22;62026;39.230;9.122;2022-10-15T09:10:48;26.50;58.90
67598;DHT22;62026;39.230;9.122;2022-10-15T09:13:22;26.40;58.90
67598;DHT22;62026;39.230;9.122;2022-10-15T09:16:02;26.40;58.70
67598;DHT22;62026;39.230;9.122;2022-10-15T09:18:35;26.50;58.70
67598;DHT22;62026;39.230;9.122;2022-10-15T09:21:03;26.50;58.60
67598;DHT22;62026;39.230;9.122;2022-10-15T09:23:33;26.60;58.50
67598;DHT22;62026;39.230;9.122;2022-10-15T09:31:20;26.60;58.10
67598;DHT22;62026;39.230;9.122;2022-10-15T09:36:50;26.90;57.60
67598;DHT22;62026;39.230;9.122;2022-10-15T09:44:49;27.00;57.40
67598;DHT22;62026;39.230;9.122;2022-10-15T09:47:24;27.00;57.20
67598;DHT22;62026;39.230;9.122;2022-10-15T09:49:58;27.00;57.10
67598;DHT22;62026;39.230;9.122;2022-10-15T09:57:48;27.10;56.50
67598;DHT22;62026;39.230;9.122;2022-10-15T10:00:18;27.00;56.70
67598;DHT22;62026;39.230;9.122;2022-10-15T10:02:51;27.10;56.90
67598;DHT22;62026;39.230;9.122;2022-10-15T10:05:32;26.90;56.90
67598;DHT22;62026;39.230;9.122;2022-10-15T10:10:56;27.00;56.90
67598;DHT22;62026;39.230;9.122;2022-10-15T10:13:25;26.90;57.20
67598;DHT22;62026;39.230;9.122;2022-10-15T10:15:54;26.90;57.30
67598;DHT22;62026;39.230;9.122;2022-10-15T10:18:26;26.90;57.30
67598;DHT22;62026;39.230;9.122;2022-10-15T10:20:56;27.10;56.90
67598;DHT22;62026;39.230;9.122;2022-10-15T10:23:37;27.30;56.50
67598;DHT22;62026;39.230;9.122;2022-10-15T10:26:08;27.20;56.50
67598;DHT22;62026;39.230;9.122;2022-10-15T10:28:36;27.00;57.10
67598;DHT22;62026;39.230;9.122;2022-10-15T10:31:15;26.90;57.00
67598;DHT22;62026;39.230;9.122;2022-10-15T10:33:44;26.90;57.10
67598;DHT22;62026;39.230;9.122;2022-10-15T10:36:24;27.10;56.70
67598;DHT22;62026;39.230;9.122;2022-10-15T10:39:03;27.20;56.10
67598;DHT22;62026;39.230;9.122;2022-10-15T10:49:32;26.70;56.80
67598;DHT22;62026;39.230;9.122;2022-10-15T10:51:59;26.70;56.40
67598;DHT22;62026;39.230;9.122;2022-10-15T10:54:26;26.70;56.50
67598;DHT22;62026;39.230;9.122;2022-10-15T10:56:53;26.60;56.70
67598;DHT22;62026;39.230;9.122;2022-10-15T10:59:22;26.50;57.30
67598;DHT22;62026;39.230;9.122;2022-10-15T11:02:10;26.30;57.00
67598;DHT22;62026;39.230;9.122;2022-10-15T11:04:37;26.20;57.30
67598;DHT22;62026;39.230;9.122;2022-10-15T11:26:42;25.90;56.40
67598;DHT22;62026;39.230;9.122;2022-10-15T11:37:40;25.90;55.90
67598;DHT22;62026;39.230;9.122;2022-10-15T11:40:21;25.90;55.90
67598;DHT22;62026;39.230;9.122;2022-10-15T11:43:30;25.90;55.30
67598;DHT22;62026;39.230;9.122;2022-10-15T11:54:26;25.90;54.50
67598;DHT22;62026;39.230;9.122;2022-10-15T11:57:12;25.80;54.40
67598;DHT22;62026;39.230;9.122;2022-10-15T11:59:46;25.80;54.30
67598;DHT22;62026;39.230;9.122;2022-10-15T12:04:49;25.80;54.00
67598;DHT22;62026;39.230;9.122;2022-10-15T12:07:32;25.80;53.80
67598;DHT22;62026;39.230;9.122;2022-10-15T12:16:27;25.80;53.50
67598;DHT22;62026;39.230;9.122;2022-10-15T12:19:12;25.70;52.80
67598;DHT22;62026;39.230;9.122;2022-10-15T12:21:44;25.70;53.00
67598;DHT22;62026;39.230;9.122;2022-10-15T12:32:44;25.60;54.40
67598;DHT22;62026;39.230;9.122;2022-10-15T12:37:41;25.70;54.00
67598;DHT22;62026;39.230;9.122;2022-10-15T12:42:55;25.60;53.80
67598;DHT22;62026;39.230;9.122;2022-10-15T12:45:32;25.60;54.40
67598;DHT22;62026;39.230;9.122;2022-10-15T12:50:30;25.70;54.90
67598;DHT22;62026;39.230;9.122;2022-10-15T12:53:27;25.70;54.80
67598;DHT22;62026;39.230;9.122;2022-10-15T12:58:40;25.60;54.40
67598;DHT22;62026;39.230;9.122;2022-10-15T13:08:47;25.60;53.60
67598;DHT22;62026;39.230;9.122;2022-10-15T13:11:24;25.60;53.70
67598;DHT22;62026;39.230;9.122;2022-10-15T13:13:58;25.70;53.80
67598;DHT22;62026;39.230;9.122;2022-10-15T13:16:28;25.60;53.60
67598;DHT22;62026;39.230;9.122;2022-10-15T13:18:54;25.60;53.40
67598;DHT22;62026;39.230;9.122;2022-10-15T13:21:22;25.60;53.40
67598;DHT22;62026;39.230;9.122;2022-10-15T13:24:19;25.60;53.30
67598;DHT22;62026;39.230;9.122;2022-10-15T13:26:47;25.70;52.60
67598;DHT22;62026;39.230;9.122;2022-10-15T13:29:19;25.70;52.00
67598;DHT22;62026;39.230;9.122;2022-10-15T13:31:48;25.70;51.60
67598;DHT22;62026;39.230;9.122;2022-10-15T13:36:59;25.60;51.70
67598;DHT22;62026;39.230;9.122;2022-10-15T13:39:33;25.60;51.10
67598;DHT22;62026;39.230;9.122;2022-10-15T13:42:15;25.60;51.20
67598;DHT22;62026;39.230;9.122;2022-10-15T13:44:54;25.60;51.70
67598;DHT22;62026;39.230;9.122;2022-10-15T13:47:40;25.60;51.60
67598;DHT22;62026;39.230;9.122;2022-10-15T13:50:21;25.60;51.80
67598;DHT22;62026;39.230;9.122;2022-10-15T13:52:57;25.60;52.10
67598;DHT22;62026;39.230;9.122;2022-10-15T13:55:31;25.60;51.90
67598;DHT22;62026;39.230;9.122;2022-10-15T13:58:02;25.60;52.10
67598;DHT22;62026;39.230;9.122;2022-10-15T14:03:44;25.60;52.60
67598;DHT22;62026;39.230;9.122;2022-10-15T14:06:15;25.60;52.70
67598;DHT22;62026;39.230;9.122;2022-10-15T14:08:44;25.60;52.40
67598;DHT22;62026;39.230;9.122;2022-10-15T14:11:11;25.60;52.00
67598;DHT22;62026;39.230;9.122;2022-10-15T14:18:41;25.60;52.40
67598;DHT22;62026;39.230;9.122;2022-10-15T14:21:13;25.60;52.10
67598;DHT22;62026;39.230;9.122;2022-10-15T14:23:43;25.60;51.90
67598;DHT22;62026;39.230;9.122;2022-10-15T14:26:11;25.60;52.10
67598;DHT22;62026;39.230;9.122;2022-10-15T14:28:39;25.60;51.80
67598;DHT22;62026;39.230;9.122;2022-10-15T14:31:05;25.60;51.70
67598;DHT22;62026;39.230;9.122;2022-10-15T14:33:37;25.60;51.40
67598;DHT22;62026;39.230;9.122;2022-10-15T14:38:46;25.60;50.70
67598;DHT22;62026;39.230;9.122;2022-10-15T14:41:28;25.60;49.90
67598;DHT22;62026;39.230;9.122;2022-10-15T14:44:15;25.60;49.80
67598;DHT22;62026;39.230;9.122;2022-10-15T14:46:44;25.60;50.20
67598;DHT22;62026;39.230;9.122;2022-10-15T14:51:41;25.60;50.10
67598;DHT22;62026;39.230;9.122;2022-10-15T14:54:11;25.60;49.80
67598;DHT22;62026;39.230;9.122;2022-10-15T14:56:44;25.50;49.30
67598;DHT22;62026;39.230;9.122;2022-10-15T14:59:15;25.50;49.60
67598;DHT22;62026;39.230;9.122;2022-10-15T15:01:56;25.50;49.90
67598;DHT22;62026;39.230;9.122;2022-10-15T15:04:31;25.50;49.80
67598;DHT22;62026;39.230;9.122;2022-10-15T15:06:58;25.50;49.10
67598;DHT22;62026;39.230;9.122;2022-10-15T15:09:24;25.50;49.40
67598;DHT22;62026;39.230;9.122;2022-10-15T15:11:50;25.50;49.30
67598;DHT22;62026;39.230;9.122;2022-10-15T15:14:25;25.50;49.60
67598;DHT22;62026;39.230;9.122;2022-10-15T15:16:51;25.50;50.00
67598;DHT22;62026;39.230;9.122;2022-10-15T15:19:17;25.50;50.20
67598;DHT22;62026;39.230;9.122;2022-10-15T15:21:43;25.50;50.30
67598;DHT22;62026;39.230;9.122;2022-10-15T15:24:10;25.50;50.50
67598;DHT22;62026;39.230;9.122;2022-10-15T15:26:36;25.40;50.50
67598;DHT22;62026;39.230;9.122;2022-10-15T15:29:02;25.40;49.80
67598;DHT22;62026;39.230;9.122;2022-10-15T15:31:33;25.40;50.10
67598;DHT22;62026;39.230;9.122;2022-10-15T15:33:59;25.40;50.30
67598;DHT22;62026;39.230;9.122;2022-10-15T15:36:25;25.40;50.60
67598;DHT22;62026;39.230;9.122;2022-10-15T15:38:51;25.40;50.70
67598;DHT22;62026;39.230;9.122;2022-10-15T15:41:19;25.40;50.40
67598;DHT22;62026;39.230;9.122;2022-10-15T15:43:46;25.40;50.40
67598;DHT22;62026;39.230;9.122;2022-10-15T15:46:13;25.30;50.40
67598;DHT22;62026;39.230;9.122;2022-10-15T15:48:39;25.30;50.40
67598;DHT22;62026;39.230;9.122;2022-10-15T15:51:06;25.30;50.30
67598;DHT22;62026;39.230;9.122;2022-10-15T15:53:47;25.30;50.40
67598;DHT22;62026;39.230;9.122;2022-10-15T15:56:13;25.30;50.60
67598;DHT22;62026;39.230;9.122;2022-10-15T15:58:39;25.30;50.70
67598;DHT22;62026;39.230;9.122;2022-10-15T16:01:04;25.30;50.80
67598;DHT22;62026;39.230;9.122;2022-10-15T16:03:33;25.30;50.60
67598;DHT22;62026;39.230;9.122;2022-10-15T16:05:59;25.30;50.60
67598;DHT22;62026;39.230;9.122;2022-10-15T16:08:25;25.30;50.80
67598;DHT22;62026;39.230;9.122;2022-10-15T16:10:51;25.20;51.00
67598;DHT22;62026;39.230;9.122;2022-10-15T16:13:17;25.20;51.20
67598;DHT22;62026;39.230;9.122;2022-10-15T16:15:43;25.20;51.40
67598;DHT22;62026;39.230;9.122;2022-10-15T16:18:09;25.20;51.50
67598;DHT22;62026;39.230;9.122;2022-10-15T16:20:36;25.20;51.70
67598;DHT22;62026;39.230;9.122;2022-10-15T16:23:04;25.20;51.80
67598;DHT22;62026;39.230;9.122;2022-10-15T16:25:30;25.20;51.90
67598;DHT22;62026;39.230;9.122;2022-10-15T16:27:56;25.20;52.10
67598;DHT22;62026;39.230;9.122;2022-10-15T16:30:23;25.20;52.10
67598;DHT22;62026;39.230;9.122;2022-10-15T16:32:49;25.20;52.30
67598;DHT22;62026;39.230;9.122;2022-10-15T16:35:15;25.20;52.30
67598;DHT22;62026;39.230;9.122;2022-10-15T16:37:41;25.20;52.30
67598;DHT22;62026;39.230;9.122;2022-10-15T16:40:07;25.20;52.50
67598;DHT22;62026;39.230;9.122;2022-10-15T16:42:34;25.20;52.60
67598;DHT22;62026;39.230;9.122;2022-10-15T16:44:59;25.10;52.70
67598;DHT22;62026;39.230;9.122;2022-10-15T16:47:25;25.10;52.70
67598;DHT22;62026;39.230;9.122;2022-10-15T16:49:51;25.10;52.80
67598;DHT22;62026;39.230;9.122;2022-10-15T16:52:19;25.10;52.70
67598;DHT22;62026;39.230;9.122;2022-10-15T16:54:45;25.10;52.60
67598;DHT22;62026;39.230;9.122;2022-10-15T16:57:11;25.10;52.70
67598;DHT22;62026;39.230;9.122;2022-10-15T16:59:37;25.10;52.50
67598;DHT22;62026;39.230;9.122;2022-10-15T17:02:04;25.10;52.50
67598;DHT22;62026;39.230;9.122;2022-10-15T17:04:30;25.00;52.40
67598;DHT22;62026;39.230;9.122;2022-10-15T17:06:56;25.00;52.10
67598;DHT22;62026;39.230;9.122;2022-10-15T17:09:22;25.00;52.30
67598;DHT22;62026;39.230;9.122;2022-10-15T17:11:48;25.00;52.30
67598;DHT22;62026;39.230;9.122;2022-10-15T17:14:16;25.00;52.40
67598;DHT22;62026;39.230;9.122;2022-10-15T17:16:46;25.00;52.50
67598;DHT22;62026;39.230;9.122;2022-10-15T17:19:15;24.90;52.70
67598;DHT22;62026;39.230;9.122;2022-10-15T17:21:43;24.90;52.70
67598;DHT22;62026;39.230;9.122;2022-10-15T17:24:10;24.90;52.70
67598;DHT22;62026;39.230;9.122;2022-10-15T17:26:38;24.80;52.80
67598;DHT22;62026;39.230;9.122;2022-10-15T17:29:06;24.80;52.90
67598;DHT22;62026;39.230;9.122;2022-10-15T17:31:35;24.80;53.10
67598;DHT22;62026;39.230;9.122;2022-10-15T17:34:02;24.80;53.20
67598;DHT22;62026;39.230;9.122;2022-10-15T17:36:30;24.80;53.70
67598;DHT22;62026;39.230;9.122;2022-10-15T17:38:57;24.70;53.70
67598;DHT22;62026;39.230;9.122;2022-10-15T17:41:24;24.70;54.00
67598;DHT22;62026;39.230;9.122;2022-10-15T17:43:52;24.70;54.10
67598;DHT22;62026;39.230;9.122;2022-10-15T17:46:23;24.70;54.30
67598;DHT22;62026;39.230;9.122;2022-10-15T17:48:51;24.70;54.50
67598;DHT22;62026;39.230;9.122;2022-10-15T17:51:18;24.70;54.70
67598;DHT22;62026;39.230;9.122;2022-10-15T17:53:51;24.70;55.10
67598;DHT22;62026;39.230;9.122;2022-10-15T17:58:45;24.70;55.50
67598;DHT22;62026;39.230;9.122;2022-10-15T18:01:14;24.60;55.70
67598;DHT22;62026;39.230;9.122;2022-10-15T18:03:52;24.60;55.90
67598;DHT22;62026;39.230;9.122;2022-10-15T18:06:19;24.60;56.00
67598;DHT22;62026;39.230;9.122;2022-10-15T18:08:46;24.60;56.10
67598;DHT22;62026;39.230;9.122;2022-10-15T18:11:13;24.60;56.20
67598;DHT22;62026;39.230;9.122;2022-10-15T18:13:42;24.50;56.20
67598;DHT22;62026;39.230;9.122;2022-10-15T18:16:08;24.50;56.30
67598;DHT22;62026;39.230;9.122;2022-10-15T18:18:34;24.50;56.40
67598;DHT22;62026;39.230;9.122;2022-10-15T18:21:00;24.50;56.40